sensor_id;sensor_type;location;lat;lon;timestamp;pressure;altitude;pressure_sealevel;temperature;humidity
56658;BME280;42530;52.240;19.354;2022-09-13T00:00:35;52936.38;;;-144.69;47.40
56658;BME280;42530;52.240;19.354;2022-09-13T00:03:01;52940.53;;;-144.69;47.22
56658;BME280;42530;52.240;19.354;2022-09-13T00:05:28;52959.25;;;-144.69;47.06
56658;BME280;42530;52.240;19.354;2022-09-13T00:07:54;52928.06;;;-144.69;46.96
56658;BME280;42530;52.240;19.354;2022-09-13T00:10:21;52984.22;;;-144.69;46.91
56658;BME280;42530;52.240;19.354;2022-09-13T00:12:50;52980.06;;;-144.69;46.36
56658;BME280;42530;52.240;19.354;2022-09-13T00:15:15;52975.91;;;-144.69;46.05
56658;BME280;42530;52.240;19.354;2022-09-13T00:17:41;52973.81;;;-144.69;46.15
56658;BME280;42530;52.240;19.354;2022-09-13T00:20:07;52948.84;;;-144.69;46.35
56658;BME280;42530;52.240;19.354;2022-09-13T00:22:34;52944.69;;;-144.69;46.03
56658;BME280;42530;52.240;19.354;2022-09-13T00:25:04;52984.22;;;-144.69;46.36
56658;BME280;42530;52.240;19.354;2022-09-13T00:27:31;52973.81;;;-144.69;46.15
56658;BME280;42530;52.240;19.354;2022-09-13T00:29:57;52928.06;;;-144.69;45.98
56658;BME280;42530;52.240;19.354;2022-09-13T00:32:23;52959.25;;;-144.69;46.28
56658;BME280;42530;52.240;19.354;2022-09-13T00:34:48;52975.91;;;-144.69;46.51
56658;BME280;42530;52.240;19.354;2022-09-13T00:37:13;52959.25;;;-144.69;47.10
56658;BME280;42530;52.240;19.354;2022-09-13T00:39:39;52944.69;;;-144.69;47.13
56658;BME280;42530;52.240;19.354;2022-09-13T00:42:04;52942.63;;;-144.69;46.82
56658;BME280;42530;52.240;19.354;2022-09-13T00:48:00;52919.72;;;-144.69;46.38
56658;BME280;42530;52.240;19.354;2022-09-13T00:50:31;52984.22;;;-144.69;46.24
56658;BME280;42530;52.240;19.354;2022-09-13T00:53:01;52953.00;;;-144.69;46.63
56658;BME280;42530;52.240;19.354;2022-09-13T00:55:31;52973.81;;;-144.69;46.84
56658;BME280;42530;52.240;19.354;2022-09-13T00:58:05;52961.34;;;-144.69;46.16
56658;BME280;42530;52.240;19.354;2022-09-13T01:00:31;52965.50;;;-144.69;46.84
56658;BME280;42530;52.240;19.354;2022-09-13T01:03:01;52928.06;;;-144.69;46.88
56658;BME280;42530;52.240;19.354;2022-09-13T01:05:35;52959.25;;;-144.69;46.19
56658;BME280;42530;52.240;19.354;2022-09-13T01:08:02;52957.19;;;-144.69;46.05
56658;BME280;42530;52.240;19.354;2022-09-13T01:10:34;52973.81;;;-144.69;46.02
56658;BME280;42530;52.240;19.354;2022-09-13T01:13:28;52936.38;;;-144.69;45.39
56658;BME280;42530;52.240;19.354;2022-09-13T01:15:56;52936.38;;;-144.69;45.94
56658;BME280;42530;52.240;19.354;2022-09-13T01:18:22;52923.91;;;-144.69;46.16
56658;BME280;42530;52.240;19.354;2022-09-13T01:32:23;52923.91;;;-144.69;45.69
56658;BME280;42530;52.240;19.354;2022-09-13T01:35:32;52944.69;;;-144.69;45.83
56658;BME280;42530;52.240;19.354;2022-09-13T01:43:54;52936.38;;;-144.69;46.30
56658;BME280;42530;52.240;19.354;2022-09-13T01:46:31;52934.28;;;-144.69;45.99
56658;BME280;42530;52.240;19.354;2022-09-13T01:51:49;52942.63;;;-144.69;46.05
56658;BME280;42530;52.240;19.354;2022-09-13T01:57:50;52965.50;;;-144.69;46.11
56658;BME280;42530;52.240;19.354;2022-09-13T01:59:50;52965.50;;;-144.69;46.31
56658;BME280;42530;52.240;19.354;2022-09-13T02:02:38;52959.25;;;-144.69;45.48
56658;BME280;42530;52.240;19.354;2022-09-13T02:05:17;52915.56;;;-144.69;45.48
56658;BME280;42530;52.240;19.354;2022-09-13T02:07:51;52965.50;;;-144.69;45.83
56658;BME280;42530;52.240;19.354;2022-09-13T02:10:28;52963.41;;;-144.69;45.48
56658;BME280;42530;52.240;19.354;2022-09-13T02:12:56;52942.63;;;-144.69;45.58
56658;BME280;42530;52.240;19.354;2022-09-13T02:15:36;52959.25;;;-144.69;45.99
56658;BME280;42530;52.240;19.354;2022-09-13T02:18:08;52963.41;;;-144.69;46.35
56658;BME280;42530;52.240;19.354;2022-09-13T02:20:37;52986.31;;;-144.69;46.76
56658;BME280;42530;52.240;19.354;2022-09-13T02:23:17;52953.00;;;-144.69;46.26
56658;BME280;42530;52.240;19.354;2022-09-13T02:25:45;52948.84;;;-144.69;46.37
56658;BME280;42530;52.240;19.354;2022-09-13T02:28:15;52986.31;;;-144.69;46.73
56658;BME280;42530;52.240;19.354;2022-09-13T02:30:48;52944.69;;;-144.69;47.01
56658;BME280;42530;52.240;19.354;2022-09-13T02:33:20;52944.69;;;-144.69;47.65
56658;BME280;42530;52.240;19.354;2022-09-13T02:36:00;52969.66;;;-144.69;47.42
56658;BME280;42530;52.240;19.354;2022-09-13T02:38:33;52988.38;;;-144.69;47.80
56658;BME280;42530;52.240;19.354;2022-09-13T02:43:47;52988.38;;;-144.69;47.40
56658;BME280;42530;52.240;19.354;2022-09-13T02:52:03;52977.97;;;-144.69;47.67
56658;BME280;42530;52.240;19.354;2022-09-13T02:57:18;52977.97;;;-144.69;47.79
56658;BME280;42530;52.240;19.354;2022-09-13T02:59:47;52982.16;;;-144.69;48.39
56658;BME280;42530;52.240;19.354;2022-09-13T03:02:15;52973.81;;;-144.69;48.83
56658;BME280;42530;52.240;19.354;2022-09-13T03:04:42;52973.81;;;-144.69;48.41
56658;BME280;42530;52.240;19.354;2022-09-13T03:07:13;52948.84;;;-144.69;48.06
56658;BME280;42530;52.240;19.354;2022-09-13T03:09:45;52980.06;;;-144.69;47.91
56658;BME280;42530;52.240;19.354;2022-09-13T03:15:09;52921.81;;;-144.69;47.90
56658;BME280;42530;52.240;19.354;2022-09-13T03:24:06;52934.28;;;-144.69;48.20
56658;BME280;42530;52.240;19.354;2022-09-13T03:32:11;52961.34;;;-144.69;47.79
56658;BME280;42530;52.240;19.354;2022-09-13T03:35:17;52953.00;;;-144.69;48.81
56658;BME280;42530;52.240;19.354;2022-09-13T03:43:30;52977.97;;;-144.69;48.74
56658;BME280;42530;52.240;19.354;2022-09-13T03:46:23;52982.16;;;-144.69;47.86
56658;BME280;42530;52.240;19.354;2022-09-13T03:48:51;52961.34;;;-144.69;48.65
56658;BME280;42530;52.240;19.354;2022-09-13T03:51:18;52948.84;;;-144.69;48.71
56658;BME280;42530;52.240;19.354;2022-09-13T03:53:55;52928.06;;;-144.69;48.94
56658;BME280;42530;52.240;19.354;2022-09-13T03:56:23;52980.06;;;-144.69;49.16
56658;BME280;42530;52.240;19.354;2022-09-13T03:58:49;52963.41;;;-144.69;48.76
56658;BME280;42530;52.240;19.354;2022-09-13T04:01:20;52982.16;;;-144.69;48.68
56658;BME280;42530;52.240;19.354;2022-09-13T04:03:46;52953.00;;;-144.69;48.84
56658;BME280;42530;52.240;19.354;2022-09-13T04:06:12;52988.38;;;-144.69;48.44
56658;BME280;42530;52.240;19.354;2022-09-13T04:08:37;52957.19;;;-144.69;48.72
56658;BME280;42530;52.240;19.354;2022-09-13T04:11:03;52953.00;;;-144.69;48.01
56658;BME280;42530;52.240;19.354;2022-09-13T04:13:29;52969.66;;;-144.69;48.30
56658;BME280;42530;52.240;19.354;2022-09-13T04:15:59;52957.19;;;-144.69;48.62
56658;BME280;42530;52.240;19.354;2022-09-13T04:18:26;52977.97;;;-144.69;48.92
56658;BME280;42530;52.240;19.354;2022-09-13T04:20:57;52944.69;;;-144.69;49.20
56658;BME280;42530;52.240;19.354;2022-09-13T04:23:24;52948.84;;;-144.69;48.83
56658;BME280;42530;52.240;19.354;2022-09-13T04:25:50;52977.97;;;-144.69;48.72
56658;BME280;42530;52.240;19.354;2022-09-13T04:28:20;52944.69;;;-144.69;48.42
56658;BME280;42530;52.240;19.354;2022-09-13T04:30:49;53019.59;;;-144.69;48.34
56658;BME280;42530;52.240;19.354;2022-09-13T04:33:15;52990.47;;;-144.69;48.22
56658;BME280;42530;52.240;19.354;2022-09-13T04:35:44;52934.28;;;-144.69;49.03
56658;BME280;42530;52.240;19.354;2022-09-13T04:38:09;52925.97;;;-144.69;48.81
56658;BME280;42530;52.240;19.354;2022-09-13T04:40:35;52919.72;;;-144.69;49.32
56658;BME280;42530;52.240;19.354;2022-09-13T04:43:02;52982.16;;;-144.69;49.71
56658;BME280;42530;52.240;19.354;2022-09-13T04:45:28;52957.19;;;-144.69;49.43
56658;BME280;42530;52.240;19.354;2022-09-13T04:47:54;52940.53;;;-144.69;49.15
56658;BME280;42530;52.240;19.354;2022-09-13T04:50:22;52955.09;;;-144.69;49.02
56658;BME280;42530;52.240;19.354;2022-09-13T04:52:49;52938.44;;;-144.69;49.56
56658;BME280;42530;52.240;19.354;2022-09-13T04:55:16;52969.66;;;-144.69;49.35
56658;BME280;42530;52.240;19.354;2022-09-13T04:57:41;52940.53;;;-144.69;49.35
56658;BME280;42530;52.240;19.354;2022-09-13T05:00:08;53009.19;;;-144.69;48.85
56658;BME280;42530;52.240;19.354;2022-09-13T05:02:35;52946.78;;;-144.69;49.29
56658;BME280;42530;52.240;19.354;2022-09-13T05:05:01;52963.41;;;-144.69;48.78
56658;BME280;42530;52.240;19.354;2022-09-13T05:07:26;52994.63;;;-144.69;48.67
56658;BME280;42530;52.240;19.354;2022-09-13T05:09:52;52975.91;;;-144.69;49.02
56658;BME280;42530;52.240;19.354;2022-09-13T05:12:18;53011.28;;;-144.69;48.47
56658;BME280;42530;52.240;19.354;2022-09-13T05:14:44;52990.47;;;-144.69;48.36
56658;BME280;42530;52.240;19.354;2022-09-13T05:17:11;52932.22;;;-144.69;48.03
56658;BME280;42530;52.240;19.354;2022-09-13T05:19:37;52953.00;;;-144.69;48.08
56658;BME280;42530;52.240;19.354;2022-09-13T05:22:03;52953.00;;;-144.69;48.24
56658;BME280;42530;52.240;19.354;2022-09-13T05:24:28;52961.34;;;-144.69;47.67
56658;BME280;42530;52.240;19.354;2022-09-13T05:26:54;52955.09;;;-144.69;47.41
56658;BME280;42530;52.240;19.354;2022-09-13T05:29:19;52994.63;;;-144.69;47.89
56658;BME280;42530;52.240;19.354;2022-09-13T05:31:45;52969.66;;;-144.69;47.38
56658;BME280;42530;52.240;19.354;2022-09-13T05:34:14;52988.38;;;-144.69;47.74
56658;BME280;42530;52.240;19.354;2022-09-13T05:36:40;52965.50;;;-144.69;47.28
56658;BME280;42530;52.240;19.354;2022-09-13T05:39:09;52936.38;;;-144.69;47.41
56658;BME280;42530;52.240;19.354;2022-09-13T05:41:36;52948.84;;;-144.69;46.94
56658;BME280;42530;52.240;19.354;2022-09-13T05:44:02;52977.97;;;-144.69;46.81
56658;BME280;42530;52.240;19.354;2022-09-13T05:46:27;52955.09;;;-144.69;46.57
56658;BME280;42530;52.240;19.354;2022-09-13T05:48:56;52998.78;;;-144.69;46.98
56658;BME280;42530;52.240;19.354;2022-09-13T05:51:22;52990.47;;;-144.69;47.08
56658;BME280;42530;52.240;19.354;2022-09-13T05:53:49;52992.53;;;-144.69;47.56
56658;BME280;42530;52.240;19.354;2022-09-13T05:56:20;52953.00;;;-144.69;47.28
56658;BME280;42530;52.240;19.354;2022-09-13T05:58:47;53023.75;;;-144.69;46.81
56658;BME280;42530;52.240;19.354;2022-09-13T06:01:15;52973.81;;;-144.69;46.12
56658;BME280;42530;52.240;19.354;2022-09-13T06:03:41;53002.94;;;-144.69;46.21
56658;BME280;42530;52.240;19.354;2022-09-13T06:06:07;52967.59;;;-144.69;46.30
56658;BME280;42530;52.240;19.354;2022-09-13T06:08:34;52982.16;;;-144.69;47.04
56658;BME280;42530;52.240;19.354;2022-09-13T06:11:02;52977.97;;;-144.69;47.07
56658;BME280;42530;52.240;19.354;2022-09-13T06:13:28;53000.88;;;-144.69;47.10
56658;BME280;42530;52.240;19.354;2022-09-13T06:15:55;53000.88;;;-144.69;47.02
56658;BME280;42530;52.240;19.354;2022-09-13T06:18:22;52996.72;;;-144.69;47.31
56658;BME280;42530;52.240;19.354;2022-09-13T06:20:49;53015.44;;;-144.69;46.64
56658;BME280;42530;52.240;19.354;2022-09-13T06:23:14;52986.31;;;-144.69;46.79
56658;BME280;42530;52.240;19.354;2022-09-13T06:25:40;53021.66;;;-144.69;46.72
56658;BME280;42530;52.240;19.354;2022-09-13T06:28:06;53002.94;;;-144.69;46.31
56658;BME280;42530;52.240;19.354;2022-09-13T06:30:32;53013.34;;;-144.69;45.58
56658;BME280;42530;52.240;19.354;2022-09-13T06:32:58;52998.78;;;-144.69;45.68
56658;BME280;42530;52.240;19.354;2022-09-13T06:35:24;53013.34;;;-144.69;44.84
56658;BME280;42530;52.240;19.354;2022-09-13T06:37:50;52973.81;;;-144.69;44.71
56658;BME280;42530;52.240;19.354;2022-09-13T06:40:16;52998.78;;;-144.69;45.38
56658;BME280;42530;52.240;19.354;2022-09-13T06:42:41;52984.22;;;-144.69;45.70
56658;BME280;42530;52.240;19.354;2022-09-13T06:45:07;53007.09;;;-144.69;45.94
56658;BME280;42530;52.240;19.354;2022-09-13T06:47:34;53036.22;;;-144.69;46.52
56658;BME280;42530;52.240;19.354;2022-09-13T06:50:00;52982.16;;;-144.69;46.28
56658;BME280;42530;52.240;19.354;2022-09-13T06:52:26;53019.59;;;-144.69;45.51
56658;BME280;42530;52.240;19.354;2022-09-13T06:54:52;53011.28;;;-144.69;44.32
56658;BME280;42530;52.240;19.354;2022-09-13T06:57:18;53027.91;;;-144.69;44.22
56658;BME280;42530;52.240;19.354;2022-09-13T06:59:44;53015.44;;;-144.69;43.86
56658;BME280;42530;52.240;19.354;2022-09-13T07:02:09;53021.66;;;-144.69;44.25
56658;BME280;42530;52.240;19.354;2022-09-13T07:04:35;53042.47;;;-144.69;43.47
56658;BME280;42530;52.240;19.354;2022-09-13T07:07:01;53027.91;;;-144.69;44.27
56658;BME280;42530;52.240;19.354;2022-09-13T07:09:26;53030.00;;;-144.69;44.25
56658;BME280;42530;52.240;19.354;2022-09-13T07:11:54;52969.66;;;-144.69;44.27
56658;BME280;42530;52.240;19.354;2022-09-13T07:14:21;53005.03;;;-144.69;44.24
56658;BME280;42530;52.240;19.354;2022-09-13T07:16:47;53057.03;;;-144.69;42.49
56658;BME280;42530;52.240;19.354;2022-09-13T07:19:33;53061.19;;;-144.69;42.72
56658;BME280;42530;52.240;19.354;2022-09-13T07:21:59;53019.59;;;-144.69;42.97
56658;BME280;42530;52.240;19.354;2022-09-13T07:24:24;53075.75;;;-144.69;42.14
56658;BME280;42530;52.240;19.354;2022-09-13T07:26:50;53030.00;;;-144.69;41.18
56658;BME280;42530;52.240;19.354;2022-09-13T07:29:18;53007.09;;;-144.69;41.71
56658;BME280;42530;52.240;19.354;2022-09-13T07:31:51;53057.03;;;-144.69;41.23
56658;BME280;42530;52.240;19.354;2022-09-13T07:34:20;53040.41;;;-144.69;42.25
56658;BME280;42530;52.240;19.354;2022-09-13T07:36:46;53007.09;;;-144.69;40.85
56658;BME280;42530;52.240;19.354;2022-09-13T07:39:14;53005.03;;;-144.69;42.21
56658;BME280;42530;52.240;19.354;2022-09-13T07:41:40;53002.94;;;-144.69;42.10
56658;BME280;42530;52.240;19.354;2022-09-13T07:44:06;52967.59;;;-144.69;41.41
56658;BME280;42530;52.240;19.354;2022-09-13T07:46:34;53040.41;;;-144.69;42.63
56658;BME280;42530;52.240;19.354;2022-09-13T07:49:09;53002.94;;;-144.69;42.07
56658;BME280;42530;52.240;19.354;2022-09-13T07:51:36;53054.97;;;-144.69;41.32
56658;BME280;42530;52.240;19.354;2022-09-13T07:54:05;53015.44;;;-144.69;40.46
56658;BME280;42530;52.240;19.354;2022-09-13T07:56:36;53011.28;;;-144.69;39.64
56658;BME280;42530;52.240;19.354;2022-09-13T07:59:05;53046.63;;;-144.69;39.45
56658;BME280;42530;52.240;19.354;2022-09-13T08:01:34;53044.56;;;-144.69;38.67
56658;BME280;42530;52.240;19.354;2022-09-13T08:04:03;53052.88;;;-144.69;37.37
56658;BME280;42530;52.240;19.354;2022-09-13T08:06:31;53040.41;;;-144.69;36.94
56658;BME280;42530;52.240;19.354;2022-09-13T08:08:57;53019.59;;;-144.69;35.58
56658;BME280;42530;52.240;19.354;2022-09-13T08:11:34;53015.44;;;-144.69;35.91
56658;BME280;42530;52.240;19.354;2022-09-13T08:14:00;53025.84;;;-144.69;36.94
56658;BME280;42530;52.240;19.354;2022-09-13T08:16:27;53032.06;;;-144.69;35.87
56658;BME280;42530;52.240;19.354;2022-09-13T08:18:55;53019.59;;;-144.69;36.81
56658;BME280;42530;52.240;19.354;2022-09-13T08:21:22;53021.66;;;-144.69;35.51
56658;BME280;42530;52.240;19.354;2022-09-13T08:23:48;53036.22;;;-144.69;35.67
56658;BME280;42530;52.240;19.354;2022-09-13T08:26:15;53007.09;;;-144.69;34.87
56658;BME280;42530;52.240;19.354;2022-09-13T08:28:41;52988.38;;;-144.69;36.26
56658;BME280;42530;52.240;19.354;2022-09-13T08:31:12;53007.09;;;-144.69;36.25
56658;BME280;42530;52.240;19.354;2022-09-13T08:33:44;52990.47;;;-144.69;36.09
56658;BME280;42530;52.240;19.354;2022-09-13T08:36:10;53011.28;;;-144.69;36.81
56658;BME280;42530;52.240;19.354;2022-09-13T08:38:35;52982.16;;;-144.69;36.65
56658;BME280;42530;52.240;19.354;2022-09-13T08:41:03;52982.16;;;-144.69;36.28
56658;BME280;42530;52.240;19.354;2022-09-13T08:43:48;53019.59;;;-144.69;35.41
56658;BME280;42530;52.240;19.354;2022-09-13T08:46:25;53007.09;;;-144.69;36.49
56658;BME280;42530;52.240;19.354;2022-09-13T08:48:55;53015.44;;;-144.69;35.99
56658;BME280;42530;52.240;19.354;2022-09-13T08:51:24;53038.31;;;-144.69;36.37
56658;BME280;42530;52.240;19.354;2022-09-13T08:53:52;53002.94;;;-144.69;35.39
56658;BME280;42530;52.240;19.354;2022-09-13T08:56:22;53002.94;;;-144.69;34.67
56658;BME280;42530;52.240;19.354;2022-09-13T08:59:17;52977.97;;;-144.69;34.63
56658;BME280;42530;52.240;19.354;2022-09-13T09:01:57;53011.28;;;-144.69;34.46
56658;BME280;42530;52.240;19.354;2022-09-13T09:07:02;53015.44;;;-144.69;35.96
56658;BME280;42530;52.240;19.354;2022-09-13T09:09:34;53019.59;;;-144.69;35.41
56658;BME280;42530;52.240;19.354;2022-09-13T09:12:10;53019.59;;;-144.69;34.54
56658;BME280;42530;52.240;19.354;2022-09-13T09:14:41;52988.38;;;-144.69;36.17
56658;BME280;42530;52.240;19.354;2022-09-13T09:17:17;52971.75;;;-144.69;36.49
56658;BME280;42530;52.240;19.354;2022-09-13T09:19:53;52986.31;;;-144.69;35.94
56658;BME280;42530;52.240;19.354;2022-09-13T09:22:22;53023.75;;;-144.69;35.78
56658;BME280;42530;52.240;19.354;2022-09-13T09:24:55;53046.63;;;-144.69;33.63
56658;BME280;42530;52.240;19.354;2022-09-13T09:27:21;53034.16;;;-144.69;33.22
56658;BME280;42530;52.240;19.354;2022-09-13T09:29:53;53040.41;;;-144.69;31.81
56658;BME280;42530;52.240;19.354;2022-09-13T09:35:30;53040.41;;;-144.69;31.26
56658;BME280;42530;52.240;19.354;2022-09-13T09:38:51;53040.41;;;-144.69;33.03
56658;BME280;42530;52.240;19.354;2022-09-13T09:41:25;52994.63;;;-144.69;32.82
56658;BME280;42530;52.240;19.354;2022-09-13T09:44:01;53013.34;;;-144.69;34.52
56658;BME280;42530;52.240;19.354;2022-09-13T09:46:33;53009.19;;;-144.69;34.71
56658;BME280;42530;52.240;19.354;2022-09-13T09:49:40;53019.59;;;-144.69;33.71
56658;BME280;42530;52.240;19.354;2022-09-13T09:52:40;53030.00;;;-144.69;32.91
56658;BME280;42530;52.240;19.354;2022-09-13T09:55:25;53034.16;;;-144.69;33.65
56658;BME280;42530;52.240;19.354;2022-09-13T09:57:52;53023.75;;;-144.69;34.25
56658;BME280;42530;52.240;19.354;2022-09-13T10:00:19;53030.00;;;-144.69;33.79
56658;BME280;42530;52.240;19.354;2022-09-13T10:02:47;53002.94;;;-144.69;33.39
56658;BME280;42530;52.240;19.354;2022-09-13T10:05:18;52988.38;;;-144.69;33.81
56658;BME280;42530;52.240;19.354;2022-09-13T10:07:52;53032.06;;;-144.69;33.79
56658;BME280;42530;52.240;19.354;2022-09-13T10:10:22;53019.59;;;-144.69;33.81
56658;BME280;42530;52.240;19.354;2022-09-13T10:12:52;52992.53;;;-144.69;33.83
56658;BME280;42530;52.240;19.354;2022-09-13T10:15:27;53002.94;;;-144.69;34.94
56658;BME280;42530;52.240;19.354;2022-09-13T10:20:27;52965.50;;;-144.69;34.54
56658;BME280;42530;52.240;19.354;2022-09-13T10:25:34;53017.50;;;-144.69;35.41
56658;BME280;42530;52.240;19.354;2022-09-13T10:28:03;53002.94;;;-144.69;35.03
56658;BME280;42530;52.240;19.354;2022-09-13T10:30:41;53027.91;;;-144.69;34.11
56658;BME280;42530;52.240;19.354;2022-09-13T10:36:03;53021.66;;;-144.69;34.73
56658;BME280;42530;52.240;19.354;2022-09-13T10:38:33;53023.75;;;-144.69;34.73
56658;BME280;42530;52.240;19.354;2022-09-13T10:41:03;52992.53;;;-144.69;34.77
56658;BME280;42530;52.240;19.354;2022-09-13T10:43:31;52992.53;;;-144.69;34.29
56658;BME280;42530;52.240;19.354;2022-09-13T10:45:59;53007.09;;;-144.69;34.27
56658;BME280;42530;52.240;19.354;2022-09-13T10:48:28;53059.13;;;-144.69;34.64
56658;BME280;42530;52.240;19.354;2022-09-13T10:51:05;53007.09;;;-144.69;34.62
56658;BME280;42530;52.240;19.354;2022-09-13T10:53:39;53021.66;;;-144.69;34.57
56658;BME280;42530;52.240;19.354;2022-09-13T10:56:19;52996.72;;;-144.69;34.00
56658;BME280;42530;52.240;19.354;2022-09-13T10:58:45;52990.47;;;-144.69;33.54
56658;BME280;42530;52.240;19.354;2022-09-13T11:01:30;52975.91;;;-144.69;33.44
56658;BME280;42530;52.240;19.354;2022-09-13T11:07:11;52977.97;;;-144.69;34.20
56658;BME280;42530;52.240;19.354;2022-09-13T11:09:56;52998.78;;;-144.69;35.03
56658;BME280;42530;52.240;19.354;2022-09-13T11:21:04;53044.56;;;-144.69;33.22
56658;BME280;42530;52.240;19.354;2022-09-13T11:28:53;53059.13;;;-144.69;29.06
56658;BME280;42530;52.240;19.354;2022-09-13T11:45:23;53002.94;;;-144.69;32.32
56658;BME280;42530;52.240;19.354;2022-09-13T11:50:45;52996.72;;;-144.69;30.08
56658;BME280;42530;52.240;19.354;2022-09-13T11:55:51;52998.78;;;-144.69;31.10
56658;BME280;42530;52.240;19.354;2022-09-13T11:58:23;53065.34;;;-144.69;31.54
56658;BME280;42530;52.240;19.354;2022-09-13T12:01:01;53027.91;;;-144.69;28.85
56658;BME280;42530;52.240;19.354;2022-09-13T12:06:10;52977.97;;;-144.69;28.53
56658;BME280;42530;52.240;19.354;2022-09-13T12:08:50;52996.72;;;-144.69;30.33
56658;BME280;42530;52.240;19.354;2022-09-13T12:11:35;52996.72;;;-144.69;32.06
56658;BME280;42530;52.240;19.354;2022-09-13T12:14:06;52986.31;;;-144.69;32.08
56658;BME280;42530;52.240;19.354;2022-09-13T12:16:49;52984.22;;;-144.69;32.21
56658;BME280;42530;52.240;19.354;2022-09-13T12:19:27;52984.22;;;-144.69;32.12
56658;BME280;42530;52.240;19.354;2022-09-13T12:21:55;52980.06;;;-144.69;32.23
56658;BME280;42530;52.240;19.354;2022-09-13T12:27:09;52988.38;;;-144.69;31.33
56658;BME280;42530;52.240;19.354;2022-09-13T12:30:02;53102.81;;;-144.69;29.67
56658;BME280;42530;52.240;19.354;2022-09-13T12:32:29;53063.28;;;-144.69;27.97
56658;BME280;42530;52.240;19.354;2022-09-13T12:35:08;52986.31;;;-144.69;26.08
56658;BME280;42530;52.240;19.354;2022-09-13T12:38:01;53002.94;;;-144.69;28.45
56658;BME280;42530;52.240;19.354;2022-09-13T12:43:48;52953.00;;;-144.69;31.31
56658;BME280;42530;52.240;19.354;2022-09-13T13:00:26;52965.50;;;-144.69;32.68
56658;BME280;42530;52.240;19.354;2022-09-13T13:05:44;52984.22;;;-144.69;32.77
56658;BME280;42530;52.240;19.354;2022-09-13T13:13:56;53011.28;;;-144.69;32.41
56658;BME280;42530;52.240;19.354;2022-09-13T13:18:50;53015.44;;;-144.69;31.26
56658;BME280;42530;52.240;19.354;2022-09-13T13:21:32;52963.41;;;-144.69;31.66
56658;BME280;42530;52.240;19.354;2022-09-13T13:36:57;52946.78;;;-144.69;31.79
56658;BME280;42530;52.240;19.354;2022-09-13T13:50:12;52975.91;;;-144.69;32.32
56658;BME280;42530;52.240;19.354;2022-09-13T13:52:50;52973.81;;;-144.69;32.65
56658;BME280;42530;52.240;19.354;2022-09-13T13:58:03;52948.84;;;-144.69;32.77
56658;BME280;42530;52.240;19.354;2022-09-13T14:00:33;52988.38;;;-144.69;33.14
56658;BME280;42530;52.240;19.354;2022-09-13T14:10:47;52998.78;;;-144.69;34.01
56658;BME280;42530;52.240;19.354;2022-09-13T14:18:41;52965.50;;;-144.69;34.46
56658;BME280;42530;52.240;19.354;2022-09-13T14:23:48;52977.97;;;-144.69;34.45
56658;BME280;42530;52.240;19.354;2022-09-13T14:26:14;52996.72;;;-144.69;34.62
56658;BME280;42530;52.240;19.354;2022-09-13T14:28:40;52973.81;;;-144.69;34.25
56658;BME280;42530;52.240;19.354;2022-09-13T14:31:06;52971.75;;;-144.69;34.88
56658;BME280;42530;52.240;19.354;2022-09-13T14:33:33;52975.91;;;-144.69;34.35
56658;BME280;42530;52.240;19.354;2022-09-13T14:36:02;53000.88;;;-144.69;34.30
56658;BME280;42530;52.240;19.354;2022-09-13T14:38:30;52980.06;;;-144.69;34.37
56658;BME280;42530;52.240;19.354;2022-09-13T14:41:12;52980.06;;;-144.69;34.71
56658;BME280;42530;52.240;19.354;2022-09-13T14:43:39;52973.81;;;-144.69;34.41
56658;BME280;42530;52.240;19.354;2022-09-13T14:46:16;52959.25;;;-144.69;34.34
56658;BME280;42530;52.240;19.354;2022-09-13T14:48:48;52975.91;;;-144.69;34.76
56658;BME280;42530;52.240;19.354;2022-09-13T14:51:26;52957.19;;;-144.69;34.70
56658;BME280;42530;52.240;19.354;2022-09-13T14:53:58;52957.19;;;-144.69;35.01
56658;BME280;42530;52.240;19.354;2022-09-13T14:56:34;52961.34;;;-144.69;34.85
56658;BME280;42530;52.240;19.354;2022-09-13T14:59:10;52963.41;;;-144.69;34.86
56658;BME280;42530;52.240;19.354;2022-09-13T15:01:38;52957.19;;;-144.69;34.74
56658;BME280;42530;52.240;19.354;2022-09-13T15:04:04;52992.53;;;-144.69;35.06
56658;BME280;42530;52.240;19.354;2022-09-13T15:06:33;52957.19;;;-144.69;35.26
56658;BME280;42530;52.240;19.354;2022-09-13T15:09:26;52961.34;;;-144.69;35.30
56658;BME280;42530;52.240;19.354;2022-09-13T15:14:25;52967.59;;;-144.69;35.93
56658;BME280;42530;52.240;19.354;2022-09-13T15:16:59;52907.25;;;-144.69;36.26
56658;BME280;42530;52.240;19.354;2022-09-13T15:22:24;52944.69;;;-144.69;37.10
56658;BME280;42530;52.240;19.354;2022-09-13T15:24:53;52984.22;;;-144.69;36.53
56658;BME280;42530;52.240;19.354;2022-09-13T15:27:30;52932.22;;;-144.69;36.26
56658;BME280;42530;52.240;19.354;2022-09-13T15:29:59;52955.09;;;-144.69;36.32
56658;BME280;42530;52.240;19.354;2022-09-13T15:35:43;52980.06;;;-144.69;36.49
56658;BME280;42530;52.240;19.354;2022-09-13T15:38:17;52982.16;;;-144.69;36.26
56658;BME280;42530;52.240;19.354;2022-09-13T15:40:57;52967.59;;;-144.69;36.21
56658;BME280;42530;52.240;19.354;2022-09-13T15:43:23;52942.63;;;-144.69;36.48
56658;BME280;42530;52.240;19.354;2022-09-13T15:45:49;52940.53;;;-144.69;36.44
56658;BME280;42530;52.240;19.354;2022-09-13T15:48:51;52965.50;;;-144.69;36.30
56658;BME280;42530;52.240;19.354;2022-09-13T15:51:17;52942.63;;;-144.69;37.12
56658;BME280;42530;52.240;19.354;2022-09-13T15:53:44;52944.69;;;-144.69;37.00
56658;BME280;42530;52.240;19.354;2022-09-13T15:56:18;52959.25;;;-144.69;36.91
56658;BME280;42530;52.240;19.354;2022-09-13T15:58:45;52942.63;;;-144.69;37.11
56658;BME280;42530;52.240;19.354;2022-09-13T16:01:15;52961.34;;;-144.69;37.71